Oval Lp No.11 — JL6306 — position and weather

sailwx.info

Track history (hours):
 
Tides and Currents Weather Stations Pressure Air Temp Water Temp Dewpoint Dewpoint Depression Visibility Wind Speed Wind Dir Waves Ship Positions

Oval Lp No.11

Last reported at 2014-Jul-23 13:32 UTC. Time now 2014-Jul-24 02:21 UTC.
Position N 34°34' E 134°50'.

Length 67 m; draft 3.6 m.

Type: Ship (hazmat cat A). MMSI: 431500366.

Date/timePositionNaut miles runAvg speedWind from/ knotsBaromVisibWave heightAir tempDewpointWater temp
2014-Jul-23 13:32N 34°34' E 134°50'1111.2
2014-Jul-23 12:34N 34°37' E 135°03'1111.0
2014-Jul-23 11:33N 34°26' E 135°03'1212.5
2014-Jul-23 10:33N 34°13' E 134°60'1312.6
2014-Jul-23 09:31N 34°00' E 135°01'21310.1
2014-Jul-22 12:32N 34°50' E 139°12'1111.2
2014-Jul-22 11:33N 34°59' E 139°20'9 9.5
2014-Jul-22 10:33N 35°03' E 139°31'1010.2
2014-Jul-22 09:33N 35°07' E 139°42'1010.4
2014-Jul-22 08:33N 35°18' E 139°44'10 9.6
2014-Jul-22 07:33N 35°27' E 139°47'1110.8
2014-Jul-22 06:33N 35°32' E 139°59'5 5.2
2014-Jul-22 05:31N 35°33' E 140°05'0 0.0
2014-Jul-22 04:31N 35°33' E 140°05'0 0.0
2014-Jul-22 03:31N 35°33' E 140°05'0 0.1
2014-Jul-22 02:33N 35°33' E 140°05'1 0.8
2014-Jul-22 01:27N 35°33' E 140°05'0 0.0
2014-Jul-22 00:27N 35°33' E 140°05'0 0.0
2014-Jul-21 23:32N 35°33' E 140°05'0 0.1
2014-Jul-21 22:32N 35°33' E 140°04'0 0.1
2014-Jul-21 21:32N 35°33' E 140°04'0 0.0
2014-Jul-21 20:33N 35°33' E 140°04'0 0.0
2014-Jul-21 20:18N 35°33' E 140°04'0 0.0
2014-Jul-21 19:32N 35°33' E 140°04'0 0.0
2014-Jul-21 18:33N 35°33' E 140°04'0 0.0
2014-Jul-21 17:33N 35°33' E 140°04'0 0.0
2014-Jul-21 16:33N 35°33' E 140°04'0 0.0
2014-Jul-21 15:32N 35°33' E 140°04'0 0.1
2014-Jul-21 14:33N 35°33' E 140°04'0 0.0
2014-Jul-21 13:33N 35°33' E 140°04'0 0.0
2014-Jul-21 12:33N 35°33' E 140°04'0 0.0
2014-Jul-21 11:33N 35°33' E 140°04'0 0.0
2014-Jul-21 10:30N 35°33' E 140°04'0 0.0
2014-Jul-21 09:33N 35°33' E 140°04'0 0.0
2014-Jul-21 08:27N 35°33' E 140°04'0 0.0
2014-Jul-21 07:30N 35°33' E 140°04'0 0.1
2014-Jul-21 06:29N 35°33' E 140°04'0 0.0
2014-Jul-21 05:32N 35°33' E 140°04'0 0.1
2014-Jul-21 04:26N 35°33' E 140°04'0 0.0
2014-Jul-21 03:29N 35°33' E 140°04'0 0.0
2014-Jul-21 02:30N 35°33' E 140°04'0 0.1
2014-Jul-21 01:33N 35°33' E 140°04'0 0.0
2014-Jul-21 00:24N 35°33' E 140°04'0 0.0
2014-Jul-20 23:29N 35°33' E 140°04'0 0.0
2014-Jul-20 22:29N 35°33' E 140°04'0 0.0
2014-Jul-20 21:26N 35°33' E 140°04'0 0.0
2014-Jul-20 20:30N 35°33' E 140°04'0 0.1
2014-Jul-20 19:29N 35°33' E 140°04'0 0.0
2014-Jul-20 18:33N 35°33' E 140°04'0 0.0
2014-Jul-20 17:30N 35°33' E 140°04'0 0.0
2014-Jul-20 16:33N 35°33' E 140°04'0 0.1
2014-Jul-20 15:32N 35°33' E 140°04'0 0.0
2014-Jul-20 14:24N 35°33' E 140°04'0 0.0
2014-Jul-20 13:33N 35°33' E 140°04'0 0.0
2014-Jul-20 12:30N 35°33' E 140°04'7 7.1
2014-Jul-20 11:33N 35°31' E 139°57'1212.1
2014-Jul-20 10:33N 35°23' E 139°46'1111.3
2014-Jul-20 09:33N 35°12' E 139°47'1212.1
2014-Jul-20 08:33N 35°01' E 139°39'1414.3
2014-Jul-20 07:33N 34°53' E 139°24'22410.4
2014-Jul-19 10:07N 34°01' E 135°01'712.6
2014-Jul-19 09:33N 34°08' E 135°00'1212.4
2014-Jul-19 08:33N 34°20' E 134°60'1211.8
2014-Jul-19 07:33N 34°28' E 135°10'1212.1
2014-Jul-19 06:33N 34°36' E 135°22'3 3.3
2014-Jul-19 05:30N 34°34' E 135°26'0 0.0
2014-Jul-19 04:30N 34°34' E 135°26'0 0.0
2014-Jul-19 03:30N 34°34' E 135°26'3 2.8
2014-Jul-19 02:33N 34°36' E 135°24'1 0.9
2014-Jul-19 01:31N 34°36' E 135°23'0 0.0
2014-Jul-19 00:31N 34°36' E 135°23'0 0.0
2014-Jul-18 23:19N 34°36' E 135°23'0 0.0
2014-Jul-18 22:25N 34°36' E 135°23'0 0.0
2014-Jul-18 21:31N 34°36' E 135°23'0 0.0
2014-Jul-18 20:31N 34°36' E 135°23'0 0.0
2014-Jul-18 19:31N 34°36' E 135°23'0 0.0
2014-Jul-18 18:31N 34°36' E 135°23'0 0.0
2014-Jul-18 17:31N 34°36' E 135°23'0 0.0
2014-Jul-18 16:25N 34°36' E 135°23'1 1.4
2014-Jul-18 15:33N 34°35' E 135°22'1212.1
2014-Jul-18 14:33N 34°27' E 135°11'1312.8
2014-Jul-18 13:33N 34°18' E 135°00'1312.4
2014-Jul-18 12:33N 34°05' E 135°01'211 9.6
2014-Jul-17 14:32N 34°50' E 139°11'1511.6
2014-Jul-17 13:14N 35°01' E 139°25'811.7
2014-Jul-17 12:33N 35°05' E 139°33'1111.2
2014-Jul-17 11:33N 35°11' E 139°45'1110.6
2014-Jul-17 10:33N 35°21' E 139°42'1111.1
2014-Jul-17 09:33N 35°30' E 139°51'1111.3
2014-Jul-17 08:33N 35°33' E 140°05'1 0.7
2014-Jul-17 07:29N 35°33' E 140°05'0 0.0
2014-Jul-17 06:32N 35°33' E 140°05'0 0.0
2014-Jul-17 05:32N 35°33' E 140°05'0 0.0
2014-Jul-17 04:29N 35°33' E 140°05'1 1.0
2014-Jul-17 03:28N 35°34' E 140°05'6 6.1
2014-Jul-17 02:34N 35°31' E 139°58'3 3.1
2014-Jul-17 01:33N 35°29' E 139°55'3 3.4
2014-Jul-17 00:34N 35°28' E 139°51'1111.1
2014-Jul-16 23:34N 35°19' E 139°44'1110.9
2014-Jul-16 22:33N 35°08' E 139°45'1212.4
2014-Jul-16 21:34N 34°59' E 139°34'25 0.7
2014-Jul-15 09:13N 34°46' E 139°08'811.6
2014-Jul-15 08:31N 34°52' E 139°14'1010.6
2014-Jul-15 07:33N 34°59' E 139°24'1111.2
2014-Jul-15 06:33N 35°05' E 139°35'1111.1
2014-Jul-15 05:34N 35°12' E 139°46'1111.0
2014-Jul-15 04:33N 35°23' E 139°42'1211.9
2014-Jul-15 03:34N 35°31' E 139°53'10 9.8
2014-Jul-15 02:34N 35°33' E 140°05'0 0.0
2014-Jul-15 01:33N 35°33' E 140°05'0 0.0
2014-Jul-15 00:30N 35°33' E 140°05'0 0.1
2014-Jul-14 23:33N 35°33' E 140°05'8 7.5
2014-Jul-14 22:33N 35°30' E 139°56'1010.3
2014-Jul-14 21:33N 35°24' E 139°46'1010.1
2014-Jul-14 20:33N 35°14' E 139°47'1110.8
2014-Jul-14 19:33N 35°04' E 139°43'1111.0
2014-Jul-14 18:33N 34°55' E 139°34'9 8.7
2014-Jul-14 17:31N 34°53' E 139°24'  
Track history (hours):
 
Tides and Currents Weather Stations Pressure Air Temp Water Temp Dewpoint Dewpoint Depression Visibility Wind Speed Wind Dir Waves Ship Positions

Oval Lp No.11

Last reported at 2014-Jul-23 13:32 UTC. Time now 2014-Jul-24 02:21 UTC.
Position N 34°34' E 134°50'.

Length 67 m; draft 3.6 m.

Type: Ship (hazmat cat A). MMSI: 431500366.

Date/timePositionNaut miles runAvg speedWind from/ knotsBaromVisibWave heightAir tempDewpointWater temp
2014-Jul-23 13:32N 34°34' E 134°50'1111.2
2014-Jul-23 12:34N 34°37' E 135°03'1111.0
2014-Jul-23 11:33N 34°26' E 135°03'1212.5
2014-Jul-23 10:33N 34°13' E 134°60'1312.6
2014-Jul-23 09:31N 34°00' E 135°01'21310.1
2014-Jul-22 12:32N 34°50' E 139°12'1111.2
2014-Jul-22 11:33N 34°59' E 139°20'9 9.5
2014-Jul-22 10:33N 35°03' E 139°31'1010.2
2014-Jul-22 09:33N 35°07' E 139°42'1010.4
2014-Jul-22 08:33N 35°18' E 139°44'10 9.6
2014-Jul-22 07:33N 35°27' E 139°47'1110.8
2014-Jul-22 06:33N 35°32' E 139°59'5 5.2
2014-Jul-22 05:31N 35°33' E 140°05'0 0.0
2014-Jul-22 04:31N 35°33' E 140°05'0 0.0
2014-Jul-22 03:31N 35°33' E 140°05'0 0.1
2014-Jul-22 02:33N 35°33' E 140°05'1 0.8
2014-Jul-22 01:27N 35°33' E 140°05'0 0.0
2014-Jul-22 00:27N 35°33' E 140°05'0 0.0
2014-Jul-21 23:32N 35°33' E 140°05'0 0.1
2014-Jul-21 22:32N 35°33' E 140°04'0 0.1
2014-Jul-21 21:32N 35°33' E 140°04'0 0.0
2014-Jul-21 20:33N 35°33' E 140°04'0 0.0
2014-Jul-21 20:18N 35°33' E 140°04'0 0.0
2014-Jul-21 19:32N 35°33' E 140°04'0 0.0
2014-Jul-21 18:33N 35°33' E 140°04'0 0.0
2014-Jul-21 17:33N 35°33' E 140°04'0 0.0
2014-Jul-21 16:33N 35°33' E 140°04'0 0.0
2014-Jul-21 15:32N 35°33' E 140°04'0 0.1
2014-Jul-21 14:33N 35°33' E 140°04'0 0.0
2014-Jul-21 13:33N 35°33' E 140°04'0 0.0
2014-Jul-21 12:33N 35°33' E 140°04'0 0.0
2014-Jul-21 11:33N 35°33' E 140°04'0 0.0
2014-Jul-21 10:30N 35°33' E 140°04'0 0.0
2014-Jul-21 09:33N 35°33' E 140°04'0 0.0
2014-Jul-21 08:27N 35°33' E 140°04'0 0.0
2014-Jul-21 07:30N 35°33' E 140°04'0 0.1
2014-Jul-21 06:29N 35°33' E 140°04'0 0.0
2014-Jul-21 05:32N 35°33' E 140°04'0 0.1
2014-Jul-21 04:26N 35°33' E 140°04'0 0.0
2014-Jul-21 03:29N 35°33' E 140°04'0 0.0
2014-Jul-21 02:30N 35°33' E 140°04'0 0.1
2014-Jul-21 01:33N 35°33' E 140°04'0 0.0
2014-Jul-21 00:24N 35°33' E 140°04'0 0.0
2014-Jul-20 23:29N 35°33' E 140°04'0 0.0
2014-Jul-20 22:29N 35°33' E 140°04'0 0.0
2014-Jul-20 21:26N 35°33' E 140°04'0 0.0
2014-Jul-20 20:30N 35°33' E 140°04'0 0.1
2014-Jul-20 19:29N 35°33' E 140°04'0 0.0
2014-Jul-20 18:33N 35°33' E 140°04'0 0.0
2014-Jul-20 17:30N 35°33' E 140°04'0 0.0
2014-Jul-20 16:33N 35°33' E 140°04'0 0.1
2014-Jul-20 15:32N 35°33' E 140°04'0 0.0
2014-Jul-20 14:24N 35°33' E 140°04'0 0.0
2014-Jul-20 13:33N 35°33' E 140°04'0 0.0
2014-Jul-20 12:30N 35°33' E 140°04'7 7.1
2014-Jul-20 11:33N 35°31' E 139°57'1212.1
2014-Jul-20 10:33N 35°23' E 139°46'1111.3
2014-Jul-20 09:33N 35°12' E 139°47'1212.1
2014-Jul-20 08:33N 35°01' E 139°39'1414.3
2014-Jul-20 07:33N 34°53' E 139°24'22410.4
2014-Jul-19 10:07N 34°01' E 135°01'712.6
2014-Jul-19 09:33N 34°08' E 135°00'1212.4
2014-Jul-19 08:33N 34°20' E 134°60'1211.8
2014-Jul-19 07:33N 34°28' E 135°10'1212.1
2014-Jul-19 06:33N 34°36' E 135°22'3 3.3
2014-Jul-19 05:30N 34°34' E 135°26'0 0.0
2014-Jul-19 04:30N 34°34' E 135°26'0 0.0
2014-Jul-19 03:30N 34°34' E 135°26'3 2.8
2014-Jul-19 02:33N 34°36' E 135°24'1 0.9
2014-Jul-19 01:31N 34°36' E 135°23'0 0.0
2014-Jul-19 00:31N 34°36' E 135°23'0 0.0
2014-Jul-18 23:19N 34°36' E 135°23'0 0.0
2014-Jul-18 22:25N 34°36' E 135°23'0 0.0
2014-Jul-18 21:31N 34°36' E 135°23'0 0.0
2014-Jul-18 20:31N 34°36' E 135°23'0 0.0
2014-Jul-18 19:31N 34°36' E 135°23'0 0.0
2014-Jul-18 18:31N 34°36' E 135°23'0 0.0
2014-Jul-18 17:31N 34°36' E 135°23'0 0.0
2014-Jul-18 16:25N 34°36' E 135°23'1 1.4
2014-Jul-18 15:33N 34°35' E 135°22'1212.1
2014-Jul-18 14:33N 34°27' E 135°11'1312.8
2014-Jul-18 13:33N 34°18' E 135°00'1312.4
2014-Jul-18 12:33N 34°05' E 135°01'211 9.6
2014-Jul-17 14:32N 34°50' E 139°11'1511.6
2014-Jul-17 13:14N 35°01' E 139°25'811.7
2014-Jul-17 12:33N 35°05' E 139°33'1111.2
2014-Jul-17 11:33N 35°11' E 139°45'1110.6
2014-Jul-17 10:33N 35°21' E 139°42'1111.1
2014-Jul-17 09:33N 35°30' E 139°51'1111.3
2014-Jul-17 08:33N 35°33' E 140°05'1 0.7
2014-Jul-17 07:29N 35°33' E 140°05'0 0.0
2014-Jul-17 06:32N 35°33' E 140°05'0 0.0
2014-Jul-17 05:32N 35°33' E 140°05'0 0.0
2014-Jul-17 04:29N 35°33' E 140°05'1 1.0
2014-Jul-17 03:28N 35°34' E 140°05'6 6.1
2014-Jul-17 02:34N 35°31' E 139°58'3 3.1
2014-Jul-17 01:33N 35°29' E 139°55'3 3.4
2014-Jul-17 00:34N 35°28' E 139°51'1111.1
2014-Jul-16 23:34N 35°19' E 139°44'1110.9
2014-Jul-16 22:33N 35°08' E 139°45'1212.4
2014-Jul-16 21:34N 34°59' E 139°34'25 0.7
2014-Jul-15 09:13N 34°46' E 139°08'811.6
2014-Jul-15 08:31N 34°52' E 139°14'1010.6
2014-Jul-15 07:33N 34°59' E 139°24'1111.2
2014-Jul-15 06:33N 35°05' E 139°35'1111.1
2014-Jul-15 05:34N 35°12' E 139°46'1111.0
2014-Jul-15 04:33N 35°23' E 139°42'1211.9
2014-Jul-15 03:34N 35°31' E 139°53'10 9.8
2014-Jul-15 02:34N 35°33' E 140°05'0 0.0
2014-Jul-15 01:33N 35°33' E 140°05'0 0.0
2014-Jul-15 00:30N 35°33' E 140°05'0 0.1
2014-Jul-14 23:33N 35°33' E 140°05'8 7.5
2014-Jul-14 22:33N 35°30' E 139°56'1010.3
2014-Jul-14 21:33N 35°24' E 139°46'1010.1
2014-Jul-14 20:33N 35°14' E 139°47'1110.8
2014-Jul-14 19:33N 35°04' E 139°43'1111.0
2014-Jul-14 18:33N 34°55' E 139°34'9 8.7
2014-Jul-14 17:31N 34°53' E 139°24'  

Dump ship's entire track history